createdAt,value
2022-12-03T00:00:44.945Z,101087.38
2022-12-03T00:04:46.472Z,101088.97
2022-12-03T00:08:48.067Z,101082.91
2022-12-03T00:12:49.758Z,101083.84
2022-12-03T00:16:51.656Z,101076.88
2022-12-03T00:20:53.221Z,101074.34
2022-12-03T00:24:55.004Z,101071.84
2022-12-03T00:28:57.730Z,101076.28
2022-12-03T00:32:59.248Z,101072.78
2022-12-03T00:37:00.828Z,101075.34
2022-12-03T00:41:02.443Z,101073.44
2022-12-03T00:45:04.524Z,101073.44
2022-12-03T00:49:06.280Z,101071.59
2022-12-03T00:53:10.879Z,101068.25
2022-12-03T00:57:12.671Z,101074.31
2022-12-03T01:01:15.532Z,101069.03
2022-12-03T01:05:18.210Z,101072.66
2022-12-03T01:09:19.790Z,101071.84
2022-12-03T01:13:21.476Z,101064.88
2022-12-03T01:17:23.053Z,101065.75
2022-12-03T01:21:24.669Z,101067.44
2022-12-03T01:25:26.257Z,101063.91
2022-12-03T01:29:27.978Z,101067.34
2022-12-03T01:33:29.543Z,101066.41
2022-12-03T01:37:31.392Z,101063.66
2022-12-03T01:41:34.819Z,101053.94
2022-12-03T01:45:36.422Z,101057.41
2022-12-03T01:49:44.213Z,101054.81
2022-12-03T01:53:46.616Z,101055.69
2022-12-03T01:57:51.616Z,101043.59
2022-12-03T02:01:53.585Z,101047.09
2022-12-03T02:05:56.793Z,101052.50
2022-12-03T02:10:02.616Z,101048.31
2022-12-03T02:14:08.377Z,101038.72
2022-12-03T02:18:10.280Z,101036.13
2022-12-03T02:22:51.434Z,101044.72
2022-12-03T02:26:53.073Z,101043.84
2022-12-03T02:30:54.622Z,101046.47
2022-12-03T02:34:56.681Z,101031.59
2022-12-03T02:38:58.701Z,101039.44
2022-12-03T02:43:03.764Z,101037.84
2022-12-03T02:47:05.409Z,101037.84
2022-12-03T02:51:10.607Z,101043.91
2022-12-03T02:55:13.924Z,101042.34
2022-12-03T02:59:15.708Z,101038.06
2022-12-03T03:03:18.784Z,101045.09
2022-12-03T03:07:20.336Z,101035.47
2022-12-03T03:11:21.908Z,101040.75
2022-12-03T03:15:24.705Z,101039.75
2022-12-03T03:19:26.914Z,101032.78
2022-12-03T03:23:28.576Z,101036.22
2022-12-03T03:27:30.533Z,101039.00
2022-12-03T03:31:32.123Z,101033.78
2022-12-03T03:35:33.974Z,101039.00
2022-12-03T03:39:35.799Z,101031.09
2022-12-03T03:43:39.076Z,101029.34
2022-12-03T03:47:41.600Z,101035.41
2022-12-03T03:51:43.508Z,101033.72
2022-12-03T03:55:45.715Z,101035.41
2022-12-03T03:59:47.207Z,101035.34
2022-12-03T04:03:48.821Z,101026.66
2022-12-03T04:07:50.687Z,101023.97
2022-12-03T04:12:10.693Z,101025.69
2022-12-03T04:16:12.811Z,101018.63
2022-12-03T04:20:14.623Z,101019.50
2022-12-03T04:24:16.286Z,101018.78
2022-12-03T04:28:36.623Z,101010.84
2022-12-03T04:32:56.465Z,101015.19
2022-12-03T04:36:58.142Z,101010.91
2022-12-03T04:41:04.243Z,101004.75
2022-12-03T04:45:06.702Z,101006.50
2022-12-03T04:49:08.323Z,101020.50
2022-12-03T04:53:09.826Z,101024.84
2022-12-03T04:57:12.208Z,101014.38
2022-12-03T05:01:13.900Z,101017.94
2022-12-03T05:05:24.832Z,101024.78
2022-12-03T05:09:26.441Z,101012.53
2022-12-03T05:13:28.287Z,101017.75
2022-12-03T05:17:29.808Z,101002.00
2022-12-03T05:21:31.595Z,100998.56
2022-12-03T05:25:33.317Z,100996.97
2022-12-03T05:29:34.823Z,100999.63
2022-12-03T05:33:40.832Z,101003.09
2022-12-03T05:37:45.474Z,100991.72
2022-12-03T05:42:05.736Z,100987.34
2022-12-03T05:46:07.261Z,100987.53
2022-12-03T05:50:09.156Z,100996.25
2022-12-03T05:54:10.620Z,100987.50
2022-12-03T05:58:12.295Z,100989.22
2022-12-03T06:02:14.023Z,100996.25
2022-12-03T06:06:15.607Z,100994.63
2022-12-03T06:10:20.454Z,101001.59
2022-12-03T06:14:21.939Z,100998.00
2022-12-03T06:18:23.561Z,100996.25
2022-12-03T06:22:25.166Z,100998.91
2022-12-03T06:26:26.669Z,100992.69
2022-12-03T06:30:28.276Z,100992.69
2022-12-03T06:34:30.071Z,101004.09
2022-12-03T06:38:31.566Z,100997.13
2022-12-03T06:42:33.119Z,100997.16
2022-12-03T06:46:34.775Z,100989.38
2022-12-03T06:50:36.397Z,100996.25
2022-12-03T06:54:38.034Z,100997.03
2022-12-03T06:58:39.743Z,101004.06
2022-12-03T07:02:41.456Z,100994.41
2022-12-03T07:06:43.683Z,100997.78
2022-12-03T07:10:45.359Z,100996.97
2022-12-03T07:14:49.222Z,100993.47
2022-12-03T07:18:50.809Z,100997.81
2022-12-03T07:22:52.352Z,101004.75
2022-12-03T07:26:53.982Z,100992.41
2022-12-03T07:30:55.645Z,100989.00
2022-12-03T07:34:57.481Z,101000.31
2022-12-03T07:38:59.105Z,100991.59
2022-12-03T07:43:00.883Z,100994.16
2022-12-03T07:47:02.802Z,101005.31
2022-12-03T07:51:04.608Z,100995.78
2022-12-03T07:55:06.702Z,100998.44
2022-12-03T07:59:08.440Z,100990.41
2022-12-03T08:03:10.131Z,100998.13
2022-12-03T08:07:11.862Z,100991.09
2022-12-03T08:11:16.865Z,100989.16
2022-12-03T08:15:21.305Z,100988.88
2022-12-03T08:19:22.893Z,100987.75
2022-12-03T08:23:25.422Z,100979.91
2022-12-03T08:27:26.998Z,100976.31
2022-12-03T08:31:33.694Z,100977.78
2022-12-03T08:35:49.785Z,100974.22
2022-12-03T08:39:54.642Z,100975.00
2022-12-03T08:43:57.537Z,100983.13
2022-12-03T08:48:14.757Z,100978.63
2022-12-03T08:52:22.695Z,100982.69
2022-12-03T08:56:27.592Z,100988.97
2022-12-03T09:00:29.206Z,100994.22
2022-12-03T09:04:46.102Z,100993.19
2022-12-03T09:08:49.960Z,100994.06
2022-12-03T09:12:53.875Z,100986.09
2022-12-03T09:16:56.549Z,100986.09
2022-12-03T09:20:58.394Z,100985.88
2022-12-03T09:25:00.148Z,100987.63
2022-12-03T09:29:01.987Z,100985.03
2022-12-03T09:33:03.658Z,100983.28
2022-12-03T09:37:05.198Z,100982.38
2022-12-03T09:41:08.785Z,100979.59
2022-12-03T09:45:14.259Z,100975.91
2022-12-03T09:49:19.031Z,100977.75
2022-12-03T09:53:28.508Z,100977.00
2022-12-03T09:57:31.097Z,100970.53
2022-12-03T10:01:32.760Z,100962.81
2022-12-03T10:05:36.760Z,100968.72
2022-12-03T10:09:38.499Z,100965.75
2022-12-03T10:13:40.735Z,100964.78
2022-12-03T10:17:43.205Z,100960.44
2022-12-03T10:21:44.718Z,100952.72
2022-12-03T10:25:59.456Z,100949.94
2022-12-03T10:30:14.006Z,100942.44
2022-12-03T10:34:24.397Z,100949.75
2022-12-03T10:38:26.580Z,100942.88
2022-12-03T10:42:40.309Z,100938.53
2022-12-03T10:46:42.136Z,100932.66
2022-12-03T10:51:10.315Z,100937.91
2022-12-03T10:55:15.940Z,100934.03
2022-12-03T10:59:25.596Z,100936.00
2022-12-03T11:03:37.512Z,100933.78
2022-12-03T11:07:39.733Z,100936.94
2022-12-03T11:11:41.382Z,100926.25
2022-12-03T11:15:44.969Z,100928.88
2022-12-03T11:19:48.652Z,100932.34
2022-12-03T11:23:50.125Z,100922.47
2022-12-03T11:28:10.492Z,100918.56
2022-12-03T11:32:38.402Z,100910.66
2022-12-03T11:37:12.766Z,100904.69
2022-12-03T11:41:22.566Z,100905.38
2022-12-03T11:45:36.731Z,100899.38
2022-12-03T11:49:49.354Z,100895.09
2022-12-03T11:53:53.942Z,100898.31
2022-12-03T11:58:01.753Z,100887.88
2022-12-03T12:02:19.933Z,100887.63
2022-12-03T12:06:21.778Z,100878.84
2022-12-03T12:10:43.519Z,100885.72
2022-12-03T12:14:47.037Z,100882.34
2022-12-03T12:18:55.159Z,100875.84
2022-12-03T12:23:21.977Z,100883.78
2022-12-03T12:27:37.922Z,100869.50
2022-12-03T12:31:39.576Z,100864.53
2022-12-03T12:35:41.493Z,100862.66
2022-12-03T12:39:43.097Z,100854.19
2022-12-03T12:43:44.856Z,100852.63
2022-12-03T12:47:48.903Z,100854.69
2022-12-03T12:51:50.826Z,100844.53
2022-12-03T12:56:01.349Z,100834.66
2022-12-03T13:00:05.002Z,100826.72
2022-12-03T13:04:21.605Z,100824.16
2022-12-03T13:08:25.298Z,100828.44
2022-12-03T13:12:27.096Z,100825.84
2022-12-03T13:16:32.925Z,100825.78
2022-12-03T13:20:34.950Z,100823.66
2022-12-03T13:24:38.554Z,100826.19
2022-12-03T13:28:41.437Z,100822.50
2022-12-03T13:32:43.625Z,100812.88
2022-12-03T13:36:52.038Z,100811.78
2022-12-03T13:41:02.293Z,100824.78
2022-12-03T13:45:19.575Z,100819.53
2022-12-03T13:49:23.181Z,100822.38
2022-12-03T13:53:28.661Z,100823.25
2022-12-03T13:57:30.332Z,100815.16
2022-12-03T14:01:32.198Z,100813.41
2022-12-03T14:05:33.814Z,100819.50
2022-12-03T14:09:35.398Z,100815.00
2022-12-03T14:13:37.051Z,100809.81
2022-12-03T14:17:38.878Z,100813.56
2022-12-03T14:21:40.583Z,100811.16
2022-12-03T14:25:43.881Z,100813.94
2022-12-03T14:29:45.697Z,100818.53
2022-12-03T14:33:47.747Z,100816.06
2022-12-03T14:37:49.367Z,100812.44
2022-12-03T14:42:09.545Z,100810.03
2022-12-03T14:46:11.343Z,100813.72
2022-12-03T14:50:14.279Z,100818.22
2022-12-03T14:54:16.266Z,100816.22
2022-12-03T14:58:17.835Z,100819.84
2022-12-03T15:02:19.631Z,100819.13
2022-12-03T15:06:21.177Z,100822.81
2022-12-03T15:10:22.883Z,100822.94
2022-12-03T15:14:27.252Z,100821.31
2022-12-03T15:18:30.856Z,100821.34
2022-12-03T15:22:36.498Z,100825.78
2022-12-03T15:26:47.283Z,100813.72
2022-12-03T15:30:51.998Z,100815.44
2022-12-03T15:34:53.549Z,100824.09
2022-12-03T15:38:57.247Z,100821.31
2022-12-03T15:42:59.032Z,100816.22
2022-12-03T15:47:00.587Z,100818.91
2022-12-03T15:51:02.056Z,100814.59
2022-12-03T15:55:04.167Z,100813.81
2022-12-03T15:59:08.895Z,100812.06
2022-12-03T16:03:11.290Z,100813.91
2022-12-03T16:07:14.020Z,100814.78
2022-12-03T16:11:15.964Z,100816.66
2022-12-03T16:15:38.683Z,100812.09
2022-12-03T16:19:40.301Z,100811.09
2022-12-03T16:23:41.756Z,100811.84
2022-12-03T16:27:43.556Z,100809.28
2022-12-03T16:31:45.898Z,100804.75
2022-12-03T16:35:47.511Z,100810.94
2022-12-03T16:39:53.330Z,100805.97
2022-12-03T16:43:55.393Z,100805.09
2022-12-03T16:47:57.363Z,100805.94
2022-12-03T16:51:59.306Z,100808.47
2022-12-03T16:56:05.621Z,100805.97
2022-12-03T17:00:08.370Z,100801.72
2022-12-03T17:04:09.896Z,100801.69
2022-12-03T17:08:11.861Z,100799.00
2022-12-03T17:12:13.710Z,100796.22
2022-12-03T17:16:15.436Z,100804.81
2022-12-03T17:20:17.932Z,100796.84
2022-12-03T17:24:22.112Z,100796.84
2022-12-03T17:28:23.759Z,100785.06
2022-12-03T17:32:25.566Z,100783.44
2022-12-03T17:36:28.489Z,100778.03
2022-12-03T17:40:30.059Z,100780.69
2022-12-03T17:44:31.657Z,100779.88
2022-12-03T17:48:33.444Z,100769.63
2022-12-03T17:52:34.995Z,100775.72
2022-12-03T17:56:36.840Z,100772.97
2022-12-03T18:00:41.621Z,100766.72
2022-12-03T18:04:43.120Z,100764.91
2022-12-03T18:08:44.830Z,100763.97
2022-12-03T18:12:46.678Z,100759.63
2022-12-03T18:16:48.433Z,100762.97
2022-12-03T18:20:50.207Z,100760.13
2022-12-03T18:24:52.218Z,100760.25
2022-12-03T18:28:53.876Z,100765.53
2022-12-03T18:32:55.596Z,100760.13
2022-12-03T18:36:57.345Z,100769.69
2022-12-03T18:40:59.729Z,100768.75
2022-12-03T18:45:01.267Z,100763.38
2022-12-03T18:49:03.021Z,100763.59
2022-12-03T18:53:04.772Z,100753.06
2022-12-03T18:57:07.635Z,100759.97
2022-12-03T19:01:17.205Z,100763.34
2022-12-03T19:05:18.823Z,100765.22
2022-12-03T19:09:20.570Z,100762.84
2022-12-03T19:13:22.399Z,100764.44
2022-12-03T19:17:24.517Z,100760.88
2022-12-03T19:21:30.706Z,100767.06
2022-12-03T19:25:35.158Z,100759.22
2022-12-03T19:29:36.873Z,100767.91
2022-12-03T19:33:38.932Z,100762.84
2022-12-03T19:37:40.566Z,100768.69
2022-12-03T19:41:43.952Z,100762.47
2022-12-03T19:45:45.517Z,100764.22
2022-12-03T19:49:47.240Z,100765.94
2022-12-03T19:53:48.939Z,100771.34
2022-12-03T19:57:50.485Z,100769.50
2022-12-03T20:01:52.173Z,100768.72
2022-12-03T20:05:56.248Z,100764.13
2022-12-03T20:09:58.384Z,100757.97
2022-12-03T20:14:10.373Z,100760.38
2022-12-03T20:18:11.910Z,100758.53
2022-12-03T20:22:13.523Z,100753.28
2022-12-03T20:26:20.060Z,100759.31
2022-12-03T20:30:21.922Z,100749.59
2022-12-03T20:34:23.501Z,100761.19
2022-12-03T20:38:26.389Z,100757.94
2022-12-03T20:42:28.095Z,100758.88
2022-12-03T20:46:31.445Z,100742.47
2022-12-03T20:50:33.372Z,100748.75
2022-12-03T20:54:35.061Z,100745.00
2022-12-03T20:58:36.930Z,100740.44
2022-12-03T21:02:38.628Z,100748.38
2022-12-03T21:06:42.196Z,100748.88
2022-12-03T21:10:46.943Z,100750.09
2022-12-03T21:14:48.728Z,100751.94
2022-12-03T21:18:50.562Z,100752.97
2022-12-03T21:22:52.091Z,100753.97
2022-12-03T21:26:53.729Z,100744.28
2022-12-03T21:31:00.320Z,100738.84
2022-12-03T21:35:02.011Z,100737.00
2022-12-03T21:39:05.032Z,100737.16
2022-12-03T21:43:06.689Z,100731.00
2022-12-03T21:47:13.962Z,100734.00
2022-12-03T21:51:17.651Z,100731.28
2022-12-03T21:55:21.910Z,100732.22
2022-12-03T21:59:23.598Z,100741.63
2022-12-03T22:03:25.338Z,100739.00
2022-12-03T22:07:27.046Z,100733.00
2022-12-03T22:11:28.741Z,100738.22
2022-12-03T22:15:31.412Z,100723.16
2022-12-03T22:19:32.948Z,100730.88
2022-12-03T22:23:34.762Z,100731.81
2022-12-03T22:27:36.650Z,100734.25
2022-12-03T22:31:38.571Z,100730.78
2022-12-03T22:35:40.053Z,100729.25
2022-12-03T22:39:41.621Z,100731.66
2022-12-03T22:43:43.242Z,100730.59
2022-12-03T22:47:44.775Z,100715.59
2022-12-03T22:51:47.222Z,100723.88
2022-12-03T22:55:55.555Z,100713.44
2022-12-03T22:59:57.422Z,100706.59
2022-12-03T23:04:00.313Z,100702.78
2022-12-03T23:08:02.027Z,100695.91
2022-12-03T23:12:04.162Z,100695.88
2022-12-03T23:16:06.700Z,100689.81
2022-12-03T23:20:09.038Z,100688.94
2022-12-03T23:24:13.191Z,100683.66
2022-12-03T23:28:14.797Z,100677.44
2022-12-03T23:32:16.447Z,100673.34
2022-12-03T23:36:18.626Z,100669.13
2022-12-03T23:40:20.314Z,100671.69
2022-12-03T23:44:22.092Z,100667.47
2022-12-03T23:48:23.949Z,100668.16
2022-12-03T23:52:25.608Z,100669.06
2022-12-03T23:56:29.722Z,100662.94
